Time;durP1;ratioP1;P1;durP2;ratioP2;P2;SDS_P1;SDS_P2;PMS_P1;PMS_P2;Temp;Humidity;BMP_temperature;BMP_pressure;BME280_temperature;BME280_humidity;BME280_pressure;Samples;Min_cycle;Max_cycle;Signal;HPM_P1;HPM_P2
2021/05/17 00:01:59;;;;;;;5.30;4.90;;;;;;;;;;1702704;82;20939;-62
2021/05/17 00:04:35;;;;;;;9.68;6.00;;;;;;;;;;1702480;82;20999;-66
2021/05/17 00:07:02;;;;;;;;;;;;;;;;;;1707048;82;21663;-66
2021/05/17 00:09:30;;;;;;;7.95;6.83;;;;;;;;;;1702387;83;20517;-64
2021/05/17 00:11:56;;;;;;;7.12;6.47;;;;;;;;;;1686852;82;21005;-64
2021/05/17 00:14:25;;;;;;;8.48;7.65;;;;;;;;;;1698829;82;21557;-63
2021/05/17 00:16:51;;;;;;;8.15;7.20;;;;;;;;;;1703638;82;20923;-65
2021/05/17 00:19:18;;;;;;;6.95;6.28;;;;;;;;;;1702188;82;21089;-62
2021/05/17 00:21:45;;;;;;;8.25;7.33;;;;;;;;;;1702345;82;21549;-64
2021/05/17 00:24:14;;;;;;;9.20;7.85;;;;;;;;;;1702294;83;21015;-66
2021/05/17 00:26:40;;;;;;;9.10;8.35;;;;;;;;;;1704100;82;21050;-64
2021/05/17 00:29:09;;;;;;;10.13;9.00;;;;;;;;;;1701943;82;21022;-67
2021/05/17 00:31:36;;;;;;;13.60;9.40;;;;;;;;;;1702556;82;21095;-63
2021/05/17 00:34:04;;;;;;;8.98;8.20;;;;;;;;;;1702607;82;21011;-63
2021/05/17 00:36:31;;;;;;;8.40;7.78;;;;;;;;;;1707864;82;21006;-65
2021/05/17 00:38:59;;;;;;;9.20;7.40;;;;;;;;;;1715438;82;20998;-64
2021/05/17 00:41:26;;;;;;;6.53;6.00;;;;;;;;;;1702069;82;21010;-63
2021/05/17 00:43:53;;;;;;;6.55;5.35;;;;;;;;;;1685669;82;21701;-64
2021/05/17 00:46:20;;;;;;;4.50;4.10;;;;;;;;;;1704371;82;21651;-64
2021/05/17 00:48:48;;;;;;;5.00;4.50;;;;;;;;;;1702482;82;20876;-66
2021/05/17 00:51:17;;;;;;;9.48;4.30;;;;;;;;;;1702620;82;21492;-63
2021/05/17 00:53:43;;;;;;;5.50;4.40;;;;;;;;;;1702546;82;20970;-64
2021/05/17 00:56:11;;;;;;;6.75;5.35;;;;;;;;;;1704478;82;21075;-64
2021/05/17 00:58:40;;;;;;;6.33;4.83;;;;;;;;;;1727759;82;21734;-65
2021/05/17 01:01:08;;;;;;;5.20;4.40;;;;;;;;;;1730988;82;20899;-64
2021/05/17 01:03:35;;;;;;;4.72;4.33;;;;;;;;;;1730324;82;21533;-64
2021/05/17 01:06:09;;;;;;;5.08;4.40;;;;;;;;;;1706317;82;21058;-64
2021/05/17 01:08:48;;;;;;;4.30;3.90;;;;;;;;;;1707846;82;21032;-64
2021/05/17 01:11:16;;;;;;;5.62;4.65;;;;;;;;;;1715243;82;20999;-64
2021/05/17 01:13:43;;;;;;;5.87;5.28;;;;;;;;;;1690982;82;21001;-65
2021/05/17 01:16:10;;;;;;;4.97;4.58;;;;;;;;;;1682357;82;21611;-64
2021/05/17 01:18:39;;;;;;;6.28;4.50;;;;;;;;;;1703932;82;20906;-65
2021/05/17 01:21:06;;;;;;;5.15;4.65;;;;;;;;;;1649538;85;21622;-64
2021/05/17 01:23:44;;;;;;;4.70;4.25;;;;;;;;;;1702582;82;21078;-64
2021/05/17 01:26:02;;;;;;;5.58;5.00;;;;;;;;;;1669550;85;20999;-65
2021/05/17 01:28:31;;;;;;;5.65;5.15;;;;;;;;;;1703787;82;20995;-64
2021/05/17 01:31:00;;;;;;;5.80;5.20;;;;;;;;;;1702570;82;20979;-65
2021/05/17 01:33:28;;;;;;;6.58;5.65;;;;;;;;;;1702546;82;21085;-65
2021/05/17 01:35:54;;;;;;;6.40;5.80;;;;;;;;;;1703935;82;21035;-64
2021/05/17 01:38:21;;;;;;;6.17;5.60;;;;;;;;;;1702602;82;20959;-65
2021/05/17 01:40:47;;;;;;;6.12;5.55;;;;;;;;;;1705556;82;20974;-66
2021/05/17 01:43:15;;;;;;;5.70;5.20;;;;;;;;;;1710115;82;21548;-63
2021/05/17 01:45:43;;;;;;;6.10;5.53;;;;;;;;;;1669163;86;21828;-65
2021/05/17 01:48:09;;;;;;;7.10;4.97;;;;;;;;;;1712175;82;21014;-65
2021/05/17 01:50:36;;;;;;;5.65;5.12;;;;;;;;;;1669367;86;21506;-66
2021/05/17 01:53:04;;;;;;;5.55;5.12;;;;;;;;;;1710434;82;21018;-65
2021/05/17 01:55:30;;;;;;;5.60;5.12;;;;;;;;;;1669267;86;21105;-64
2021/05/17 01:58:06;;;;;;;7.53;5.35;;;;;;;;;;1695687;82;21034;-64
2021/05/17 02:00:33;;;;;;;6.45;5.85;;;;;;;;;;1643952;86;21025;-64
2021/05/17 02:03:00;;;;;;;6.00;5.40;;;;;;;;;;1720455;82;21615;-64
2021/05/17 02:05:27;;;;;;;6.20;5.60;;;;;;;;;;1723253;82;21014;-64
2021/05/17 02:07:53;;;;;;;5.80;5.35;;;;;;;;;;1723418;82;21639;-66
2021/05/17 02:10:19;;;;;;;10.58;9.55;;;;;;;;;;1721080;82;21053;-64
2021/05/17 02:12:46;;;;;;;7.92;7.22;;;;;;;;;;1693185;82;20926;-63
2021/05/17 02:15:16;;;;;;;8.43;6.37;;;;;;;;;;1710388;82;21560;-66
2021/05/17 02:17:43;;;;;;;8.35;6.70;;;;;;;;;;1730004;82;21010;-65
2021/05/17 02:20:14;;;;;;;9.85;9.00;;;;;;;;;;1669254;86;21593;-63
2021/05/17 02:22:43;;;;;;;8.03;7.33;;;;;;;;;;1709952;82;21615;-64
2021/05/17 02:25:15;;;;;;;6.65;6.10;;;;;;;;;;1668497;85;21676;-65
2021/05/17 02:27:42;;;;;;;7.22;6.40;;;;;;;;;;1712227;82;21006;-63
2021/05/17 02:30:14;;;;;;;6.95;6.42;;;;;;;;;;1710389;82;21018;-66
2021/05/17 02:32:42;;;;;;;6.20;5.70;;;;;;;;;;1710408;82;21536;-64
2021/05/17 02:35:11;;;;;;;6.15;5.65;;;;;;;;;;1669204;86;21074;-63
2021/05/17 02:37:37;;;;;;;6.15;5.75;;;;;;;;;;1711427;82;21567;-64
2021/05/17 02:40:05;;;;;;;6.65;6.05;;;;;;;;;;1710406;82;20990;-65
2021/05/17 02:42:34;;;;;;;7.10;6.40;;;;;;;;;;1710343;83;21594;-63
2021/05/17 02:45:06;;;;;;;6.37;5.85;;;;;;;;;;1710239;83;20988;-64
2021/05/17 02:47:36;;;;;;;5.25;4.85;;;;;;;;;;1704834;82;21746;-67
2021/05/17 02:50:04;;;;;;;5.92;5.33;;;;;;;;;;1694846;82;21308;-63
2021/05/17 02:52:31;;;;;;;5.10;4.70;;;;;;;;;;1696381;82;21029;-64
2021/05/17 02:55:05;;;;;;;5.62;5.12;;;;;;;;;;1699309;82;21610;-63
2021/05/17 02:57:49;;;;;;;5.72;5.22;;;;;;;;;;1706672;82;20969;-63
2021/05/17 03:00:18;;;;;;;6.50;5.97;;;;;;;;;;1695089;82;21080;-65
2021/05/17 03:02:55;;;;;;;9.95;4.85;;;;;;;;;;1702070;82;21549;-67
2021/05/17 03:05:22;;;;;;;5.53;5.10;;;;;;;;;;1709579;82;20969;-67
2021/05/17 03:07:55;;;;;;;5.35;5.03;;;;;;;;;;1709854;82;21553;-68
2021/05/17 03:10:23;;;;;;;5.40;5.00;;;;;;;;;;1709847;82;21064;-67
2021/05/17 03:12:50;;;;;;;5.65;5.12;;;;;;;;;;1727833;81;21102;-67
2021/05/17 03:15:17;;;;;;;5.53;5.00;;;;;;;;;;1709953;82;21056;-67
2021/05/17 03:17:43;;;;;;;5.65;5.20;;;;;;;;;;1679783;83;21562;-67
2021/05/17 03:20:10;;;;;;;5.30;4.90;;;;;;;;;;1710126;82;21048;-67
2021/05/17 03:22:37;;;;;;;5.40;5.00;;;;;;;;;;1710211;82;21064;-70
2021/05/17 03:25:04;;;;;;;5.10;4.70;;;;;;;;;;1709030;82;21029;-66
2021/05/17 03:27:30;;;;;;;5.37;4.80;;;;;;;;;;1679717;83;21040;-68
2021/05/17 03:29:57;;;;;;;9.88;5.03;;;;;;;;;;1679758;82;20930;-67
2021/05/17 03:32:24;;;;;;;5.47;5.08;;;;;;;;;;1709992;82;21016;-69
2021/05/17 03:34:53;;;;;;;5.03;4.58;;;;;;;;;;1709885;82;21029;-70
2021/05/17 03:37:19;;;;;;;5.17;4.67;;;;;;;;;;1709669;82;21087;-65
2021/05/17 03:39:49;;;;;;;5.10;4.67;;;;;;;;;;1709845;82;21582;-65
2021/05/17 03:42:15;;;;;;;5.10;4.70;;;;;;;;;;1711334;82;21037;-64
2021/05/17 03:44:41;;;;;;;5.65;5.15;;;;;;;;;;1649990;86;21047;-62
2021/05/17 03:47:07;;;;;;;5.45;5.05;;;;;;;;;;1698994;82;20967;-61
2021/05/17 03:49:33;;;;;;;9.50;8.43;;;;;;;;;;1711210;82;21093;-65
2021/05/17 03:51:59;;;;;;;12.90;11.60;;;;;;;;;;1659042;84;20894;-64
2021/05/17 03:54:25;;;;;;;6.03;5.53;;;;;;;;;;1705511;82;21532;-59
2021/05/17 03:56:53;;;;;;;6.33;5.53;;;;;;;;;;1719747;82;21045;-62
2021/05/17 03:59:20;;;;;;;5.45;4.95;;;;;;;;;;1715992;82;21083;-61
2021/05/17 04:01:48;;;;;;;5.78;5.20;;;;;;;;;;1722515;82;21077;-63
2021/05/17 04:04:16;;;;;;;5.53;5.12;;;;;;;;;;1721464;82;21488;-62
2021/05/17 04:14:40;;;;;;;5.40;4.90;;;;;;;;;;1710326;82;21101;-63
2021/05/17 04:17:06;;;;;;;5.05;4.55;;;;;;;;;;1727836;82;20978;-63
2021/05/17 04:19:33;;;;;;;5.60;5.17;;;;;;;;;;1668303;86;21028;-62
2021/05/17 04:21:59;;;;;;;5.47;5.03;;;;;;;;;;1710185;82;21636;-66
2021/05/17 04:24:25;;;;;;;4.20;3.90;;;;;;;;;;1726419;82;20907;-62
2021/05/17 04:26:52;;;;;;;4.28;3.98;;;;;;;;;;1709820;82;21092;-63
2021/05/17 04:29:18;;;;;;;4.58;3.72;;;;;;;;;;1720632;82;20983;-66
2021/05/17 04:31:44;;;;;;;4.20;3.90;;;;;;;;;;1728526;82;20972;-62
2021/05/17 04:34:10;;;;;;;3.65;3.30;;;;;;;;;;1668646;86;21033;-63
2021/05/17 04:36:43;;;;;;;3.45;3.15;;;;;;;;;;1714794;82;20979;-66
2021/05/17 04:39:06;;;;;;;5.00;4.60;;;;;;;;;;1732835;82;21701;-65
2021/05/17 04:41:33;;;;;;;4.90;4.50;;;;;;;;;;1724835;82;21061;-60
2021/05/17 04:43:59;;;;;;;3.60;3.30;;;;;;;;;;1658765;84;20944;-62
2021/05/17 04:46:25;;;;;;;3.98;3.10;;;;;;;;;;1695378;82;20990;-65
2021/05/17 04:48:52;;;;;;;4.22;3.40;;;;;;;;;;1730163;82;21077;-63
2021/05/17 04:51:19;;;;;;;4.40;3.20;;;;;;;;;;1716051;82;21084;-63
2021/05/17 04:53:45;;;;;;;3.65;3.35;;;;;;;;;;1664402;84;21041;-57
2021/05/17 04:56:12;;;;;;;5.60;4.72;;;;;;;;;;1725893;82;20915;-55
2021/05/17 04:58:38;;;;;;;4.25;3.85;;;;;;;;;;1663780;84;21526;-59
2021/05/17 05:01:04;;;;;;;4.10;3.12;;;;;;;;;;1705551;82;21034;-64
2021/05/17 05:03:30;;;;;;;4.03;2.60;;;;;;;;;;1692391;82;21098;-58
2021/05/17 05:05:57;;;;;;;2.40;2.20;;;;;;;;;;1684965;82;21030;-62
2021/05/17 05:08:24;;;;;;;2.55;2.35;;;;;;;;;;1643852;84;21605;-63
2021/05/17 05:10:50;;;;;;;3.33;2.40;;;;;;;;;;1688400;82;21041;-61
2021/05/17 05:13:16;;;;;;;2.27;2.12;;;;;;;;;;1670458;84;21649;-61
2021/05/17 05:15:42;;;;;;;2.35;1.75;;;;;;;;;;1719913;82;21891;-56
2021/05/17 05:18:09;;;;;;;2.37;1.77;;;;;;;;;;1708950;82;21022;-60
2021/05/17 05:20:37;;;;;;;2.17;1.80;;;;;;;;;;1692610;82;21114;-62
2021/05/17 05:23:05;;;;;;;2.98;1.70;;;;;;;;;;1693264;82;20962;-60
2021/05/17 05:25:55;;;;;;;1.80;1.70;;;;;;;;;;1634998;85;20987;-62
2021/05/17 05:28:01;;;;;;;1.98;1.87;;;;;;;;;;1691062;82;21460;-61
2021/05/17 05:30:43;;;;;;;2.58;2.37;;;;;;;;;;1687306;82;20982;-61
2021/05/17 05:33:08;;;;;;;2.42;2.22;;;;;;;;;;1644743;84;20932;-60
2021/05/17 05:35:24;;;;;;;2.10;1.90;;;;;;;;;;1686956;82;21018;-59
2021/05/17 05:37:50;;;;;;;3.00;2.70;;;;;;;;;;1690461;82;21666;-66
2021/05/17 05:40:17;;;;;;;7.80;5.35;;;;;;;;;;1713984;82;21671;-68
2021/05/17 05:42:43;;;;;;;13.55;8.28;;;;;;;;;;1676763;84;20986;-67
2021/05/17 05:45:11;;;;;;;14.00;9.68;;;;;;;;;;1714952;82;20923;-62
2021/05/17 05:47:37;;;;;;;15.23;9.88;;;;;;;;;;1713133;82;21102;-64
2021/05/17 05:50:04;;;;;;;22.10;11.30;;;;;;;;;;1680469;85;21086;-62
2021/05/17 05:52:30;;;;;;;19.52;10.03;;;;;;;;;;1703724;82;21097;-65
2021/05/17 05:55:03;;;;;;;12.33;8.50;;;;;;;;;;1677595;84;20979;-66
2021/05/17 05:57:26;;;;;;;14.87;8.55;;;;;;;;;;1714749;79;20966;-58
2021/05/17 05:59:52;;;;;;;10.43;6.20;;;;;;;;;;1680416;85;21094;-60
2021/05/17 06:02:18;;;;;;;7.40;5.00;;;;;;;;;;1718484;82;21042;-63
2021/05/17 06:04:44;;;;;;;6.53;5.12;;;;;;;;;;1669618;85;21675;-60
2021/05/17 06:07:10;;;;;;;11.97;5.92;;;;;;;;;;1719492;82;20954;-63
2021/05/17 06:09:37;;;;;;;9.63;5.47;;;;;;;;;;1715384;82;20966;-59
2021/05/17 06:12:05;;;;;;;10.30;5.78;;;;;;;;;;1705313;82;21094;-57
2021/05/17 06:14:32;;;;;;;7.97;6.97;;;;;;;;;;1716752;82;20922;-62
2021/05/17 06:17:20;;;;;;;11.22;6.17;;;;;;;;;;1680391;85;21588;-61
2021/05/17 06:19:47;;;;;;;7.47;5.67;;;;;;;;;;1717669;83;21599;-63
2021/05/17 06:22:13;;;;;;;11.48;4.85;;;;;;;;;;1719988;83;21602;-64
2021/05/17 06:24:41;;;;;;;6.90;4.03;;;;;;;;;;1719727;83;20994;-64
2021/05/17 06:27:08;;;;;;;7.42;3.87;;;;;;;;;;1720990;83;21009;-64
2021/05/17 06:29:35;;;;;;;4.45;3.60;;;;;;;;;;1718873;83;21095;-64
2021/05/17 06:32:03;;;;;;;4.67;3.27;;;;;;;;;;1718998;83;21128;-63
2021/05/17 06:34:30;;;;;;;5.28;3.00;;;;;;;;;;1718930;83;21005;-63
2021/05/17 06:36:56;;;;;;;4.40;2.77;;;;;;;;;;1719295;83;20993;-63
2021/05/17 06:39:23;;;;;;;4.87;3.45;;;;;;;;;;1720157;83;20973;-63
2021/05/17 06:41:49;;;;;;;3.22;2.87;;;;;;;;;;1719565;83;22499;-63
2021/05/17 06:44:16;;;;;;;3.40;2.62;;;;;;;;;;1720587;83;21064;-63
2021/05/17 06:46:43;;;;;;;2.60;2.12;;;;;;;;;;1718878;83;21555;-63
2021/05/17 06:49:10;;;;;;;3.00;2.80;;;;;;;;;;1719131;83;21012;-63
2021/05/17 06:51:36;;;;;;;4.20;2.55;;;;;;;;;;1717985;83;21654;-63
2021/05/17 06:54:04;;;;;;;2.77;2.58;;;;;;;;;;1719900;83;21514;-63
2021/05/17 06:56:43;;;;;;;3.60;1.92;;;;;;;;;;1719762;83;21100;-63
2021/05/17 06:59:13;;;;;;;2.42;2.10;;;;;;;;;;1720187;83;21058;-62
2021/05/17 07:01:37;;;;;;;3.40;1.90;;;;;;;;;;1720004;83;21028;-65
2021/05/17 07:04:04;;;;;;;2.87;2.05;;;;;;;;;;1715033;83;21626;-62
2021/05/17 07:06:32;;;;;;;2.58;2.20;;;;;;;;;;1719142;83;21068;-62
2021/05/17 07:11:54;;;;;;;3.50;2.22;;;;;;;;;;1719760;83;20985;-62
2021/05/17 07:14:19;;;;;;;2.02;1.87;;;;;;;;;;1716430;83;21021;-62
2021/05/17 07:16:45;;;;;;;1.90;1.70;;;;;;;;;;1716959;82;20978;-62
2021/05/17 07:19:12;;;;;;;2.30;2.10;;;;;;;;;;1719015;82;21108;-62
2021/05/17 07:24:23;;;;;;;2.55;1.98;;;;;;;;;;1708084;82;20944;-64
2021/05/17 07:26:50;;;;;;;2.25;1.98;;;;;;;;;;1711851;82;20959;-65
2021/05/17 07:29:17;;;;;;;2.55;1.87;;;;;;;;;;1712570;83;20954;-64
2021/05/17 07:31:44;;;;;;;2.00;1.90;;;;;;;;;;1714509;82;21092;-63
2021/05/17 07:34:10;;;;;;;2.17;1.95;;;;;;;;;;1712102;83;20970;-61
2021/05/17 07:36:38;;;;;;;2.47;1.65;;;;;;;;;;1712221;82;21054;-65
2021/05/17 07:39:05;;;;;;;2.77;1.80;;;;;;;;;;1712711;83;21025;-65
2021/05/17 07:41:32;;;;;;;3.67;1.80;;;;;;;;;;1713958;82;21550;-65
2021/05/17 07:43:58;;;;;;;3.40;2.33;;;;;;;;;;1714852;82;21090;-65
2021/05/17 07:46:24;;;;;;;2.45;2.10;;;;;;;;;;1717673;82;21014;-65
2021/05/17 07:51:40;;;;;;;3.20;2.95;;;;;;;;;;1707197;82;21006;-63
2021/05/17 07:54:07;;;;;;;3.55;3.25;;;;;;;;;;1714588;82;21135;-64
2021/05/17 07:56:33;;;;;;;3.92;3.58;;;;;;;;;;1711428;83;21099;-65
2021/05/17 07:59:00;;;;;;;4.42;4.03;;;;;;;;;;1710601;83;47694;-65
2021/05/17 08:01:27;;;;;;;5.33;4.83;;;;;;;;;;1712095;83;21002;-65
2021/05/17 08:03:53;;;;;;;7.45;4.97;;;;;;;;;;1711515;83;20970;-63
2021/05/17 08:06:21;;;;;;;5.83;3.65;;;;;;;;;;1715122;82;20899;-65
2021/05/17 08:08:47;;;;;;;3.80;3.50;;;;;;;;;;1718852;82;21075;-65
2021/05/17 08:11:13;;;;;;;5.65;5.15;;;;;;;;;;1713282;82;21005;-65
2021/05/17 08:13:40;;;;;;;4.42;4.08;;;;;;;;;;1713624;83;20930;-65
2021/05/17 08:16:06;;;;;;;3.62;2.67;;;;;;;;;;1713462;82;21041;-65
2021/05/17 08:18:34;;;;;;;4.08;2.85;;;;;;;;;;1713472;83;20990;-64
2021/05/17 08:21:00;;;;;;;3.20;2.90;;;;;;;;;;1713578;82;21108;-65
2021/05/17 08:23:28;;;;;;;6.12;3.80;;;;;;;;;;1715846;82;20966;-64
2021/05/17 08:25:55;;;;;;;7.53;5.28;;;;;;;;;;1712728;82;20972;-64
2021/05/17 08:28:21;;;;;;;5.78;4.87;;;;;;;;;;1713084;82;20962;-64
2021/05/17 08:30:54;;;;;;;7.00;5.20;;;;;;;;;;1723223;82;21558;-64
2021/05/17 08:33:16;;;;;;;7.58;5.17;;;;;;;;;;1719699;82;21827;-63
2021/05/17 08:35:42;;;;;;;6.30;4.00;;;;;;;;;;1715102;82;21053;-64
2021/05/17 08:38:08;;;;;;;7.08;3.95;;;;;;;;;;1705029;82;22593;-63
2021/05/17 08:40:35;;;;;;;3.25;2.92;;;;;;;;;;1707940;82;20974;-64
2021/05/17 08:43:01;;;;;;;3.10;2.90;;;;;;;;;;1706420;82;20995;-63
2021/05/17 08:45:27;;;;;;;2.70;2.50;;;;;;;;;;1706553;82;21673;-63
2021/05/17 08:47:53;;;;;;;3.22;2.35;;;;;;;;;;1704029;82;20971;-64
2021/05/17 08:50:20;;;;;;;3.60;2.47;;;;;;;;;;1700659;82;21055;-64
2021/05/17 08:52:46;;;;;;;2.02;1.85;;;;;;;;;;1700068;82;20915;-64
2021/05/17 08:55:14;;;;;;;3.30;2.22;;;;;;;;;;1701391;82;21019;-64
2021/05/17 08:57:45;;;;;;;4.12;2.22;;;;;;;;;;1706876;82;21535;-64
2021/05/17 09:00:13;;;;;;;3.67;1.80;;;;;;;;;;1641503;87;20992;-64
2021/05/17 09:02:40;;;;;;;2.33;2.22;;;;;;;;;;1675997;85;21020;-63
2021/05/17 09:05:17;;;;;;;2.80;1.87;;;;;;;;;;1712870;82;21532;-65
2021/05/17 09:07:46;;;;;;;3.10;1.80;;;;;;;;;;1712626;83;20938;-67
2021/05/17 09:10:19;;;;;;;3.75;1.72;;;;;;;;;;1711459;83;21058;-66
2021/05/17 09:13:02;;;;;;;1.67;1.57;;;;;;;;;;1707845;82;21501;-67
2021/05/17 09:15:32;;;;;;;2.15;1.42;;;;;;;;;;1712266;83;20946;-67
2021/05/17 09:17:59;;;;;;;1.72;1.62;;;;;;;;;;1713499;82;20951;-66
2021/05/17 09:20:34;;;;;;;1.72;1.62;;;;;;;;;;1712640;83;20981;-67
2021/05/17 09:23:19;;;;;;;1.80;1.70;;;;;;;;;;1711212;82;21686;-67
2021/05/17 09:26:01;;;;;;;3.80;2.30;;;;;;;;;;1713517;82;21022;-66
2021/05/17 09:28:32;;;;;;;3.33;1.95;;;;;;;;;;1709415;83;21013;-63
2021/05/17 09:31:05;;;;;;;3.30;2.42;;;;;;;;;;1712055;83;20990;-66
2021/05/17 09:33:48;;;;;;;2.47;2.27;;;;;;;;;;1710811;83;21560;-63
2021/05/17 09:36:41;;;;;;;2.50;2.37;;;;;;;;;;1711740;83;21098;-63
2021/05/17 09:39:12;;;;;;;2.83;2.27;;;;;;;;;;1715824;82;20986;-63
2021/05/17 09:41:56;;;;;;;2.00;1.80;;;;;;;;;;1713296;82;20978;-65
2021/05/17 09:44:25;;;;;;;3.27;1.90;;;;;;;;;;1712872;82;20978;-52
2021/05/17 09:46:56;;;;;;;2.22;1.90;;;;;;;;;;1651802;85;21655;-62
2021/05/17 09:49:28;;;;;;;2.50;2.10;;;;;;;;;;1676729;85;21695;-62
2021/05/17 09:52:12;;;;;;;3.37;1.90;;;;;;;;;;1705619;82;20991;-58
2021/05/17 09:55:01;;;;;;;2.85;2.10;;;;;;;;;;1724189;82;20952;-62
2021/05/17 09:57:36;;;;;;;1.67;1.57;;;;;;;;;;1713667;82;20983;-62
2021/05/17 10:00:13;;;;;;;2.22;2.02;;;;;;;;;;1725176;82;20955;-49
2021/05/17 10:02:44;;;;;;;2.10;1.50;;;;;;;;;;1712243;82;21033;-55
2021/05/17 10:05:19;;;;;;;4.67;2.62;;;;;;;;;;1712503;82;20982;-51
2021/05/17 10:07:48;;;;;;;6.87;2.42;;;;;;;;;;1713872;82;21287;-57
2021/05/17 10:10:14;;;;;;;6.22;3.00;;;;;;;;;;1721638;82;20960;-59
2021/05/17 10:12:42;;;;;;;7.10;4.35;;;;;;;;;;1713115;82;20942;-56
2021/05/17 10:15:11;;;;;;;6.70;5.78;;;;;;;;;;1713702;83;21092;-53
2021/05/17 10:17:37;;;;;;;14.98;12.73;;;;;;;;;;1712338;83;21755;-64
2021/05/17 10:20:05;;;;;;;8.25;6.58;;;;;;;;;;1728015;82;20981;-51
2021/05/17 10:22:32;;;;;;;8.65;5.72;;;;;;;;;;1737650;82;21021;-57
2021/05/17 10:24:59;;;;;;;7.53;5.72;;;;;;;;;;1741167;81;21498;-54
2021/05/17 10:27:27;;;;;;;6.97;5.60;;;;;;;;;;1757186;81;21020;-51
2021/05/17 10:29:59;;;;;;;6.28;4.17;;;;;;;;;;1753301;81;21026;-49
2021/05/17 10:32:44;;;;;;;4.40;3.92;;;;;;;;;;1757205;81;20920;-51
2021/05/17 10:35:13;;;;;;;5.67;4.00;;;;;;;;;;1753920;81;21533;-47
2021/05/17 10:37:39;;;;;;;5.78;4.20;;;;;;;;;;1751672;81;21486;-49
2021/05/17 10:40:07;;;;;;;5.78;4.95;;;;;;;;;;1732038;82;21117;-53
2021/05/17 10:42:53;;;;;;;6.60;4.55;;;;;;;;;;1748377;81;21039;-69
2021/05/17 10:48:23;;;;;;;4.80;3.95;;;;;;;;;;1737795;82;20933;-61
2021/05/17 10:51:14;;;;;;;5.30;3.67;;;;;;;;;;1736191;82;21001;-58
2021/05/17 10:53:55;;;;;;;5.22;3.83;;;;;;;;;;1737373;82;21993;-55
2021/05/17 10:56:44;;;;;;;6.17;4.33;;;;;;;;;;1737043;82;21139;-55
2021/05/17 11:01:59;;;;;;;7.03;5.35;;;;;;;;;;1737579;82;21008;-54
2021/05/17 11:04:32;;;;;;;5.78;5.00;;;;;;;;;;1737478;82;20889;-52
2021/05/17 11:07:19;;;;;;;6.83;6.00;;;;;;;;;;1737655;82;21098;-56
2021/05/17 11:10:09;;;;;;;9.78;6.40;;;;;;;;;;1737578;82;20949;-57
2021/05/17 11:12:46;;;;;;;5.83;4.65;;;;;;;;;;1736823;82;21605;-55
2021/05/17 11:15:13;;;;;;;5.95;4.67;;;;;;;;;;1737541;82;21597;-56
2021/05/17 11:17:57;;;;;;;6.95;4.70;;;;;;;;;;1709179;82;21040;-57
2021/05/17 11:23:26;;;;;;;8.00;4.60;;;;;;;;;;1706982;82;20982;-56
2021/05/17 11:26:02;;;;;;;5.47;4.42;;;;;;;;;;1708687;82;20975;-59
2021/05/17 11:28:42;;;;;;;9.48;4.45;;;;;;;;;;1707923;82;21505;-53
2021/05/17 11:31:23;;;;;;;11.50;4.42;;;;;;;;;;1709161;82;21024;-56
2021/05/17 11:34:06;;;;;;;6.10;4.67;;;;;;;;;;1707901;82;21062;-58
2021/05/17 11:36:44;;;;;;;4.95;4.45;;;;;;;;;;1713090;82;21034;-57
2021/05/17 11:39:25;;;;;;;6.20;4.42;;;;;;;;;;1711674;83;20962;-55
2021/05/17 11:42:02;;;;;;;5.10;4.60;;;;;;;;;;1711914;82;21037;-53
2021/05/17 11:44:53;;;;;;;5.22;4.40;;;;;;;;;;1711878;83;20950;-48
2021/05/17 11:47:15;;;;;;;10.95;4.58;;;;;;;;;;1710091;83;21187;-59
2021/05/17 11:49:43;;;;;;;6.90;3.90;;;;;;;;;;1712637;83;21542;-53
2021/05/17 11:52:14;;;;;;;5.83;4.12;;;;;;;;;;1712490;83;20990;-56
2021/05/17 11:54:42;;;;;;;3.77;3.47;;;;;;;;;;1713181;83;21535;-52
2021/05/17 11:57:10;;;;;;;5.03;4.22;;;;;;;;;;1713561;82;21033;-60
2021/05/17 11:59:36;;;;;;;5.08;3.98;;;;;;;;;;1713451;82;21161;-54
2021/05/17 12:02:04;;;;;;;4.92;4.25;;;;;;;;;;1712068;82;21579;-54
2021/05/17 12:04:36;;;;;;;5.55;3.58;;;;;;;;;;1713518;82;21488;-53
2021/05/17 12:07:07;;;;;;;5.30;3.45;;;;;;;;;;1703640;82;20976;-55
2021/05/17 12:09:38;;;;;;;3.85;3.52;;;;;;;;;;1706814;82;21063;-59
2021/05/17 12:12:08;;;;;;;5.62;4.17;;;;;;;;;;1713228;83;21091;-63
2021/05/17 12:14:35;;;;;;;3.77;3.12;;;;;;;;;;1710607;83;21116;-56
2021/05/17 12:17:14;;;;;;;3.33;3.00;;;;;;;;;;1711313;83;21049;-57
2021/05/17 12:19:47;;;;;;;3.83;3.52;;;;;;;;;;1716373;82;21020;-50
2021/05/17 12:22:27;;;;;;;6.05;2.80;;;;;;;;;;1737530;82;21588;-52
2021/05/17 12:24:57;;;;;;;3.62;2.52;;;;;;;;;;1737471;82;21133;-55
2021/05/17 12:27:24;;;;;;;6.25;2.95;;;;;;;;;;1737441;82;21546;-54
2021/05/17 12:29:53;;;;;;;4.90;3.58;;;;;;;;;;1737532;82;21052;-53
2021/05/17 12:32:22;;;;;;;4.37;3.00;;;;;;;;;;1737802;82;21645;-54
2021/05/17 12:34:55;;;;;;;3.52;2.85;;;;;;;;;;1668595;86;21008;-54
2021/05/17 12:37:23;;;;;;;3.00;2.55;;;;;;;;;;1722271;83;21100;-60
2021/05/17 12:40:10;;;;;;;2.83;2.22;;;;;;;;;;1722051;83;21106;-55
2021/05/17 12:42:37;;;;;;;4.65;2.58;;;;;;;;;;1722491;83;20962;-52
2021/05/17 12:45:08;;;;;;;3.12;2.52;;;;;;;;;;1722248;83;20971;-49
2021/05/17 12:47:42;;;;;;;4.20;2.30;;;;;;;;;;1722364;83;21084;-56
2021/05/17 12:50:20;;;;;;;3.62;2.45;;;;;;;;;;1722402;83;21061;-51
2021/05/17 12:52:47;;;;;;;4.37;2.60;;;;;;;;;;1722146;83;22436;-50
2021/05/17 12:55:19;;;;;;;5.17;2.62;;;;;;;;;;1732925;82;20999;-48
2021/05/17 12:57:59;;;;;;;2.67;2.10;;;;;;;;;;1730269;82;21057;-48
2021/05/17 13:00:40;;;;;;;2.98;2.08;;;;;;;;;;1731913;82;20945;-54
2021/05/17 13:03:12;;;;;;;4.92;2.00;;;;;;;;;;1735464;82;21093;-54
2021/05/17 13:05:52;;;;;;;4.67;1.90;;;;;;;;;;1733156;82;21632;-53
2021/05/17 13:08:18;;;;;;;3.02;1.60;;;;;;;;;;1735555;82;21591;-49
2021/05/17 13:10:59;;;;;;;2.35;1.82;;;;;;;;;;1732325;82;21079;-53
2021/05/17 13:13:46;;;;;;;3.05;2.17;;;;;;;;;;1722356;83;21621;-48
2021/05/17 13:16:21;;;;;;;5.10;2.80;;;;;;;;;;1722195;83;21106;-50
2021/05/17 13:19:02;;;;;;;5.22;3.20;;;;;;;;;;1722326;83;21017;-54
2021/05/17 13:21:36;;;;;;;4.40;2.20;;;;;;;;;;1721961;83;21044;-50
2021/05/17 13:30:01;;;;;;;1.30;1.20;;;;;;;;;;1731628;82;21799;-49
2021/05/17 13:32:20;;;;;;;2.00;1.30;;;;;;;;;;1728746;82;21076;-49
2021/05/17 13:34:47;;;;;;;8.90;1.90;;;;;;;;;;1730223;82;21128;-47
2021/05/17 13:37:13;;;;;;;2.77;1.40;;;;;;;;;;1730220;82;21048;-49
2021/05/17 13:39:40;;;;;;;1.72;1.30;;;;;;;;;;1728742;82;21607;-55
2021/05/17 13:42:06;;;;;;;3.87;2.17;;;;;;;;;;1725177;82;21099;-50
2021/05/17 13:44:33;;;;;;;2.52;1.40;;;;;;;;;;1725801;82;21617;-54
2021/05/17 13:46:59;;;;;;;2.77;1.50;;;;;;;;;;1726393;82;21050;-52
2021/05/17 13:49:27;;;;;;;4.95;1.20;;;;;;;;;;1726165;82;21028;-47
2021/05/17 13:51:53;;;;;;;3.22;1.40;;;;;;;;;;1728335;82;20992;-46
2021/05/17 13:54:19;;;;;;;1.30;1.20;;;;;;;;;;1731239;82;21099;-48
2021/05/17 13:56:47;;;;;;;3.95;1.20;;;;;;;;;;1731168;82;20957;-56
2021/05/17 13:59:13;;;;;;;1.92;1.35;;;;;;;;;;1730020;82;21525;-48
2021/05/17 14:01:39;;;;;;;2.65;1.40;;;;;;;;;;1732824;82;20960;-48
2021/05/17 14:04:05;;;;;;;4.20;1.65;;;;;;;;;;1728458;82;21535;-46
2021/05/17 14:06:32;;;;;;;5.08;1.40;;;;;;;;;;1731632;82;21093;-49
2021/05/17 14:08:58;;;;;;;5.00;1.52;;;;;;;;;;1737067;82;21586;-49
2021/05/17 14:11:24;;;;;;;2.72;1.62;;;;;;;;;;1732372;82;21001;-50
2021/05/17 14:13:54;;;;;;;2.15;1.32;;;;;;;;;;1722267;83;20942;-49
2021/05/17 14:16:21;;;;;;;3.62;1.40;;;;;;;;;;1735587;82;21513;-65
2021/05/17 14:18:47;;;;;;;1.72;1.60;;;;;;;;;;1734584;82;21565;-63
2021/05/17 14:21:13;;;;;;;3.30;1.05;;;;;;;;;;1718900;83;21010;-63
2021/05/17 14:23:39;;;;;;;3.02;0.98;;;;;;;;;;1710904;83;21053;-65
2021/05/17 14:26:05;;;;;;;3.42;1.05;;;;;;;;;;1724322;82;21707;-64
2021/05/17 14:28:32;;;;;;;5.10;1.10;;;;;;;;;;1729442;82;20972;-66
2021/05/17 14:30:58;;;;;;;3.10;1.32;;;;;;;;;;1731482;82;21727;-65
2021/05/17 14:33:24;;;;;;;3.87;1.22;;;;;;;;;;1726289;82;21533;-67
2021/05/17 14:35:50;;;;;;;3.00;1.35;;;;;;;;;;1729865;82;20933;-67
2021/05/17 14:38:17;;;;;;;1.65;0.80;;;;;;;;;;1727912;82;21089;-65
2021/05/17 14:40:43;;;;;;;3.40;0.85;;;;;;;;;;1730117;82;20916;-65
2021/05/17 14:43:09;;;;;;;2.95;0.88;;;;;;;;;;1726665;82;21072;-68
2021/05/17 14:45:35;;;;;;;4.45;1.50;;;;;;;;;;1708921;82;21675;-65
2021/05/17 14:48:02;;;;;;;5.78;1.10;;;;;;;;;;1729290;82;20991;-65
2021/05/17 14:50:28;;;;;;;0.82;0.60;;;;;;;;;;1728468;82;21031;-65
2021/05/17 14:52:55;;;;;;;4.35;0.98;;;;;;;;;;1730139;82;21454;-67
2021/05/17 14:55:21;;;;;;;2.85;1.07;;;;;;;;;;1726214;82;21296;-66
2021/05/17 14:57:47;;;;;;;5.72;1.77;;;;;;;;;;1729909;82;20869;-65
2021/05/17 15:00:18;;;;;;;3.30;1.10;;;;;;;;;;1727966;82;21581;-66
2021/05/17 15:02:44;;;;;;;1.20;1.07;;;;;;;;;;1730165;82;21060;-65
2021/05/17 15:05:11;;;;;;;1.57;1.05;;;;;;;;;;1729408;82;21039;-66
2021/05/17 15:07:37;;;;;;;3.17;1.15;;;;;;;;;;1728902;82;21114;-65
2021/05/17 15:10:05;;;;;;;1.07;0.80;;;;;;;;;;1730034;82;21528;-65
2021/05/17 15:12:31;;;;;;;1.45;1.17;;;;;;;;;;1715820;82;21124;-65
2021/05/17 15:14:58;;;;;;;1.47;1.15;;;;;;;;;;1713743;83;20965;-65
2021/05/17 15:17:25;;;;;;;1.25;0.90;;;;;;;;;;1713668;83;21626;-65
2021/05/17 15:19:51;;;;;;;3.95;1.07;;;;;;;;;;1713756;82;21073;-66
2021/05/17 15:22:18;;;;;;;1.20;0.93;;;;;;;;;;1732637;82;21529;-66
2021/05/17 15:24:44;;;;;;;5.72;0.85;;;;;;;;;;1737697;82;21080;-64
2021/05/17 15:27:11;;;;;;;1.77;0.80;;;;;;;;;;1737935;82;21016;-66